Αναφορές Αεροδρομίων

 

KSJC - San Jose, California, USA
Distance from station: ΒΑ 14km
Ενημερώθηκε: 04/12/2022 06:41
Ασθενής βροχή, Mist, Συννεφιά
Ασθενής βροχή, Mist, Συννεφιά
 Ανεμος από calm
Ανεμος: Απνοια
Θερμοκρασία: 9°C
Σημείο Δρόσου: 8°C
Υγρασία: 94%
Βαρόμετρο: 1014.2 hPa
Περίληψη: Ασθενής βροχή, Mist
Clouds: Συννεφιά
Visibility: 5 km
Cloud details: Σχεδόν νεφελώδης 183 m
Σχεδόν νεφελώδης 640 m
Συννεφιά 823 m
2022/12/04 04:41 KSJC 040441Z 00000KT 3SM -RA BR BKN006 BKN021 OVC027 09/08 A2995 RMK AO2 P0002 T00940083 $
KNUQ - Moffett Nas/Mtn, California, USA
Distance from station: Β 14km
Ενημερώθηκε: 04/12/2022 06:35
Light drizzle, Συννεφιά
Light drizzle, Συννεφιά
 Ανεμος από calm
Ανεμος: Απνοια
Θερμοκρασία: 9°C
Σημείο Δρόσου: 9°C
Υγρασία: 100%
Βαρόμετρο: 1014.2 hPa
Περίληψη: Light Drizzle
Clouds: Συννεφιά
Visibility: 5 km
Cloud details: Συννεφιά 91 m
2022/12/04 04:35 KNUQ 040435Z AUTO 00000KT 3SM -DZ OVC003 09/09 A2995 RMK AO2
 
KPAO - Palo Alto, California, USA
Distance from station: ΒΒΔ 23km
Ενημερώθηκε: 04/12/2022 06:47
Σχεδόν νεφελώδης
Σχεδόν νεφελώδης
 Ανεμος από calm
Ανεμος: Απνοια
Θερμοκρασία: 9°C
Σημείο Δρόσου: 9°C
Υγρασία: 100%
Βαρόμετρο: 1014.6 hPa
Clouds: Σχεδόν νεφελώδης
Visibility: 3 km
Cloud details: Σχεδόν νεφελώδης 122 m
2022/12/04 04:47 KPAO 040447Z 00000KT 2SM BKN004 09/09 A2996 RA RMK LAST
KRHV - San Jose/Reid, California, USA
Distance from station: ΑΒΑ 19km
Ενημερώθηκε: 04/12/2022 05:55
Mist, Συννεφιά
Mist, Συννεφιά
 Ανεμος από calm
Ανεμος: Απνοια
Θερμοκρασία: 9°C
Σημείο Δρόσου: 9°C
Υγρασία: 100%
Βαρόμετρο: 1014.6 hPa
Περίληψη: Mist
Clouds: Συννεφιά
Visibility: 2 km
Cloud details: Συννεφιά 122 m
2022/12/04 03:55 KRHV 040355Z 00000KT 1SM BR OVC004 09/09 A2996 -RA
 
KOAK - Oakland, California, USA
Distance from station: ΒΒΔ 50km
Ενημερώθηκε: 04/12/2022 05:53
Ασθενής βροχή, Mist, Συννεφιά
Ασθενής βροχή, Mist, Συννεφιά
 Ανεμος από ΒΒΔ
Ανεμος: ΒΒΔ 6 km/h
Θερμοκρασία: 9°C
Σημείο Δρόσου: 8°C
Υγρασία: 94%
Βαρόμετρο: 1014.2 hPa
Περίληψη: Ασθενής βροχή, Mist
Clouds: Συννεφιά
Visibility: 4 km
Cloud details: Few Clouds 61 m
Σχεδόν νεφελώδης 305 m
Συννεφιά 457 m
2022/12/04 03:53 KOAK 040353Z 34003KT 2 1/2SM -RA BR FEW002 BKN010 OVC015 09/08 A2995 RMK AO2 SLP143 P0003 T00890083
KSQL - San Carlos Airpo, California, USA
Distance from station: ΒΔ 34km
Ενημερώθηκε: 04/12/2022 05:47
Βροχή, Mist, Σχεδόν νεφελώδης
Βροχή, Mist, Σχεδόν νεφελώδης
 Ανεμος από calm
Ανεμος: Απνοια
Θερμοκρασία: 9°C
Σημείο Δρόσου: 9°C
Υγρασία: 100%
Βαρόμετρο: 1014.2 hPa
Περίληψη: Βροχή, Mist
Clouds: Σχεδόν νεφελώδης
Visibility: 3 km
Cloud details: Σχεδόν νεφελώδης 122 m
2022/12/04 03:47 KSQL 040347Z 00000KT 2SM RA BR BKN004 09/09 A2995
 
KSFO - San Francisco, California, USA
Distance from station: ΒΔ 49km
Ενημερώθηκε: 04/12/2022 06:33
Ασθενής βροχή, Συννεφιά
Ασθενής βροχή, Συννεφιά
 Ανεμος από Α
Ανεμος: Α 6 km/h
Θερμοκρασία: 10°C
Σημείο Δρόσου: 9°C
Υγρασία: 94%
Βαρόμετρο: 1013.9 hPa
Περίληψη: Ασθενής βροχή
Clouds: Συννεφιά
Visibility: 13 km
Cloud details: Few Clouds 91 m
Μερικώς νεφελώδης 183 m
Συννεφιά 1189 m
2022/12/04 04:33 KSFO 040433Z 10003KT 8SM -RA FEW003 SCT006 OVC039 10/09 A2994 RMK AO2 P0001 T01000089
KE16 - San Martin, California, USA
Distance from station: ΑΝΑ 43km
Ενημερώθηκε: 04/12/2022 06:35
Ασθενής βροχή, Συννεφιά
Ασθενής βροχή, Συννεφιά
 Ανεμος από Β
Ανεμος: Β 19 km/h
Θερμοκρασία: 9°C
Wind Chill: 6°C
Σημείο Δρόσου: 9°C
Υγρασία: 100%
Βαρόμετρο: 1014.2 hPa
Περίληψη: Ασθενής βροχή
Clouds: Συννεφιά
Visibility: 4 km
Cloud details: Few Clouds 91 m
Σχεδόν νεφελώδης 244 m
Συννεφιά 640 m
2022/12/04 04:35 KE16 040435Z AUTO 35010KT 2 1/2SM -RA FEW003 BKN008 OVC021 09/09 A2995 RMK AO2
 
KWVI - Watsonville, California, USA
Distance from station: ΝΝΑ 44km
Ενημερώθηκε: 04/12/2022 06:21
Ασθενής βροχή, Mist, Συννεφιά
Ασθενής βροχή, Mist, Συννεφιά
 Ανεμος από ΔΒΔ
Ανεμος: ΔΒΔ 6 km/h
Θερμοκρασία: 11°C
Σημείο Δρόσου: 11°C
Υγρασία: 100%
Βαρόμετρο: 1013.9 hPa
Περίληψη: Ασθενής βροχή, Mist
Clouds: Συννεφιά
Visibility: 6 km
Cloud details: Few Clouds 549 m
Συννεφιά 732 m
2022/12/04 04:21 KWVI 040421Z AUTO 29003KT 4SM -RA BR FEW018 OVC024 11/11 A2994 RMK AO2 P0009 T01110111
KHAF - Half Moon Bay, California, USA
Distance from station: ΔΒΔ 50km
Ενημερώθηκε: 04/12/2022 06:35
Mist, Συννεφιά
Mist, Συννεφιά
 Ανεμος από calm
Ανεμος: Απνοια
Θερμοκρασία: 9°C
Σημείο Δρόσου: 9°C
Υγρασία: 100%
Βαρόμετρο: 1014.2 hPa
Περίληψη: Mist
Clouds: Συννεφιά
Visibility: 8 km
Cloud details: Σχεδόν νεφελώδης 152 m
Συννεφιά 335 m
2022/12/04 04:35 KHAF 040435Z AUTO 00000KT 5SM BR BKN005 OVC011 09/09 A2995 RMK AO2
 
KHWD - Hayward, California, USA
Distance from station: Β 44km
Ενημερώθηκε: 04/12/2022 06:29
Ασθενής βροχή, Mist, Συννεφιά
Ασθενής βροχή, Mist, Συννεφιά
 Ανεμος από calm
Ανεμος: Απνοια
Θερμοκρασία: 9°C
Σημείο Δρόσου: 9°C
Υγρασία: 100%
Βαρόμετρο: 1014.2 hPa
Περίληψη: Ασθενής βροχή, Mist
Clouds: Συννεφιά
Visibility: 6 km
Cloud details: Μερικώς νεφελώδης 183 m
Συννεφιά 701 m
2022/12/04 04:29 KHWD 040429Z 00000KT 4SM -RA BR SCT006 OVC023 09/09 A2995 RMK AO2 P0002 T00940094
KLVK - Livermore, California, USA
Distance from station: ΒΒΑ 51km
Ενημερώθηκε: 04/12/2022 05:53
Ασθενής βροχή, Mist, Συννεφιά
Ασθενής βροχή, Mist, Συννεφιά
 Ανεμος από calm
Ανεμος: Απνοια
Θερμοκρασία: 8°C
Σημείο Δρόσου: 8°C
Υγρασία: 100%
Βαρόμετρο: 1013.9 hPa
Περίληψη: Ασθενής βροχή, Mist
Clouds: Συννεφιά
Visibility: 4 km
Cloud details: Σχεδόν νεφελώδης 122 m
Συννεφιά 274 m
2022/12/04 03:53 KLVK 040353Z 00000KT 2 1/2SM -RA BR BKN004 OVC009 08/08 A2994 RMK AO2 SLP137 P0005 T00780078